Aérodrome :
LOGIN :

S'inscrire | Disclaimer

   EN    FR    IT 

 










Légende :    VFR   VFR Marginal   IFR   IFR Intensif   IFR Très Intensif
Visi : 
Plafond : 
>= 8 km
>= 3000ft
5 à 8 km
1000 à 3000 ft
1500m à 5 km
500 à 1000 ft
800 à 1500m
200 à 500 ft
< 800m
< 200 ft
Symboles :   Orages  Brouillard  Fortes neiges  Fortes précipitations  Vent > 20 kt
SIGMETs :   Divers  Orages  Givrage  Turbulence  Onde Orograph.  Cendres Volcan.







- Altitude de l'aérodrome : 49 ft
- Code IATA : GLZ


EHGR - Gilze-Rijen Airbase

DERNIER METAR :
  • 170827Z AUTO 16007KT 110V190 9999 NCD 22/14 Q1020 BLU 15007KT 9999 FEW035

METARs EXPIRÉS :
  • 170755Z AUTO 16007KT 090V200 9999 NCD 21/14 Q1020 BLU 15007KT CAVOK
  • 170725Z AUTO 17007KT 120V210 9999 NCD 20/14 Q1020 BLU 15007KT CAVOK
  • 170655Z AUTO 14006KT 110V190 9999 NCD 20/14 Q1020 BLU 15007KT CAVOK
  • 170632Z AUTO 14006KT 110V180 9999 NCD 19/14 Q1020 BLU 15007KT CAVOK
  • 170555Z AUTO 14004KT 110V170 9999 NCD 16/14 Q1020 BLU

TAF TAF EHGR
Valide du 17 à 05h jusqu'au 17 à 17h UTC


170442Z 1705/1717 13005KT CAVOK
PROB40 1713/1716 26004KT
Pas de NOTAMs connus pour ce terrain.



MET'MAP, la Météo Aéronautique d'un coup d'oeil ! - Copyright ORBIFLY Décembre 2007 - Disclaimer

ORBIFLY MET'MAP TEAM :

Programmation & Développement : Alexandra Zaïnal
Conception & Développement : Baudouin d'Aumeries
Co-Programmation & Développement : Marc-Olivier Méhu
Soutien technique & logistique : Manuel Goepfert

Contact : metmap@orbifly.com




SOURCES & CREDITS :

   NOAA